sensor_id;sensor_type;location;lat;lon;timestamp;P1;durP1;ratioP1;P2;durP2;ratioP2
4355;SDS011;64374;51.482;7.408;2023-04-06T00:00:23;14.77;;;9.43;;
4355;SDS011;64374;51.482;7.408;2023-04-06T00:02:52;12.23;;;8.83;;
4355;SDS011;64374;51.482;7.408;2023-04-06T00:05:20;13.77;;;8.17;;
4355;SDS011;64374;51.482;7.408;2023-04-06T00:07:54;11.33;;;7.70;;
4355;SDS011;64374;51.482;7.408;2023-04-06T00:10:24;12.97;;;8.07;;
4355;SDS011;64374;51.482;7.408;2023-04-06T00:12:54;16.70;;;9.33;;
4355;SDS011;64374;51.482;7.408;2023-04-06T00:15:24;14.93;;;7.87;;
4355;SDS011;64374;51.482;7.408;2023-04-06T00:17:55;13.03;;;7.60;;
4355;SDS011;64374;51.482;7.408;2023-04-06T00:20:24;13.10;;;8.30;;
4355;SDS011;64374;51.482;7.408;2023-04-06T00:22:53;12.17;;;8.03;;
4355;SDS011;64374;51.482;7.408;2023-04-06T00:25:22;12.77;;;8.10;;
4355;SDS011;64374;51.482;7.408;2023-04-06T00:27:50;17.33;;;8.53;;
4355;SDS011;64374;51.482;7.408;2023-04-06T00:30:18;12.67;;;8.40;;
4355;SDS011;64374;51.482;7.408;2023-04-06T00:32:49;12.10;;;8.80;;
4355;SDS011;64374;51.482;7.408;2023-04-06T00:35:18;13.77;;;8.23;;
4355;SDS011;64374;51.482;7.408;2023-04-06T00:37:47;13.67;;;7.70;;
4355;SDS011;64374;51.482;7.408;2023-04-06T00:40:17;13.37;;;8.53;;
4355;SDS011;64374;51.482;7.408;2023-04-06T00:42:45;14.10;;;9.60;;
4355;SDS011;64374;51.482;7.408;2023-04-06T00:45:14;12.30;;;8.37;;
4355;SDS011;64374;51.482;7.408;2023-04-06T00:47:43;13.40;;;8.20;;
4355;SDS011;64374;51.482;7.408;2023-04-06T00:50:11;10.47;;;8.10;;
4355;SDS011;64374;51.482;7.408;2023-04-06T00:52:40;12.97;;;7.23;;
4355;SDS011;64374;51.482;7.408;2023-04-06T00:55:09;11.20;;;7.30;;
4355;SDS011;64374;51.482;7.408;2023-04-06T00:57:42;14.23;;;9.50;;
4355;SDS011;64374;51.482;7.408;2023-04-06T01:00:12;8.20;;;7.30;;
4355;SDS011;64374;51.482;7.408;2023-04-06T01:02:43;11.03;;;7.70;;
4355;SDS011;64374;51.482;7.408;2023-04-06T01:05:18;11.67;;;7.07;;
4355;SDS011;64374;51.482;7.408;2023-04-06T01:07:53;12.03;;;7.50;;
4355;SDS011;64374;51.482;7.408;2023-04-06T01:10:28;9.97;;;7.27;;
4355;SDS011;64374;51.482;7.408;2023-04-06T01:13:15;11.67;;;8.10;;
4355;SDS011;64374;51.482;7.408;2023-04-06T01:15:49;11.13;;;7.50;;
4355;SDS011;64374;51.482;7.408;2023-04-06T01:18:27;10.60;;;7.70;;
4355;SDS011;64374;51.482;7.408;2023-04-06T01:21:29;10.67;;;7.90;;
4355;SDS011;64374;51.482;7.408;2023-04-06T01:24:11;9.50;;;7.80;;
4355;SDS011;64374;51.482;7.408;2023-04-06T01:27:15;10.20;;;6.80;;
4355;SDS011;64374;51.482;7.408;2023-04-06T01:29:46;10.63;;;6.70;;
4355;SDS011;64374;51.482;7.408;2023-04-06T01:32:41;10.53;;;6.53;;
4355;SDS011;64374;51.482;7.408;2023-04-06T01:35:13;8.40;;;6.40;;
4355;SDS011;64374;51.482;7.408;2023-04-06T01:37:51;10.10;;;6.77;;
4355;SDS011;64374;51.482;7.408;2023-04-06T01:40:28;8.07;;;6.73;;
4355;SDS011;64374;51.482;7.408;2023-04-06T01:42:56;9.57;;;5.90;;
4355;SDS011;64374;51.482;7.408;2023-04-06T01:45:32;9.43;;;6.77;;
4355;SDS011;64374;51.482;7.408;2023-04-06T01:48:10;9.50;;;6.40;;
4355;SDS011;64374;51.482;7.408;2023-04-06T01:50:39;9.53;;;6.07;;
4355;SDS011;64374;51.482;7.408;2023-04-06T01:53:12;10.07;;;5.80;;
4355;SDS011;64374;51.482;7.408;2023-04-06T01:55:44;10.70;;;6.20;;
4355;SDS011;64374;51.482;7.408;2023-04-06T01:58:21;9.17;;;5.67;;
4355;SDS011;64374;51.482;7.408;2023-04-06T02:00:50;11.23;;;6.70;;
4355;SDS011;64374;51.482;7.408;2023-04-06T02:03:19;8.90;;;6.77;;
4355;SDS011;64374;51.482;7.408;2023-04-06T02:05:56;10.20;;;5.57;;
4355;SDS011;64374;51.482;7.408;2023-04-06T02:08:32;8.63;;;6.60;;
4355;SDS011;64374;51.482;7.408;2023-04-06T02:11:03;11.40;;;6.90;;
4355;SDS011;64374;51.482;7.408;2023-04-06T02:13:38;10.00;;;5.60;;
4355;SDS011;64374;51.482;7.408;2023-04-06T02:16:10;10.83;;;6.27;;
4355;SDS011;64374;51.482;7.408;2023-04-06T02:18:39;8.43;;;5.73;;
4355;SDS011;64374;51.482;7.408;2023-04-06T02:21:11;8.40;;;6.90;;
4355;SDS011;64374;51.482;7.408;2023-04-06T02:23:39;10.37;;;6.70;;
4355;SDS011;64374;51.482;7.408;2023-04-06T02:26:11;12.50;;;7.63;;
4355;SDS011;64374;51.482;7.408;2023-04-06T02:28:40;11.33;;;7.00;;
4355;SDS011;64374;51.482;7.408;2023-04-06T02:31:08;8.27;;;5.17;;
4355;SDS011;64374;51.482;7.408;2023-04-06T02:33:38;7.17;;;6.00;;
4355;SDS011;64374;51.482;7.408;2023-04-06T02:36:07;12.00;;;6.10;;
4355;SDS011;64374;51.482;7.408;2023-04-06T02:38:36;9.53;;;6.23;;
4355;SDS011;64374;51.482;7.408;2023-04-06T02:41:04;8.13;;;5.67;;
4355;SDS011;64374;51.482;7.408;2023-04-06T02:43:38;7.50;;;5.60;;
4355;SDS011;64374;51.482;7.408;2023-04-06T02:46:15;9.03;;;6.10;;
4355;SDS011;64374;51.482;7.408;2023-04-06T02:48:44;8.90;;;6.43;;
4355;SDS011;64374;51.482;7.408;2023-04-06T02:51:13;13.40;;;6.23;;
4355;SDS011;64374;51.482;7.408;2023-04-06T02:53:46;7.40;;;5.83;;
4355;SDS011;64374;51.482;7.408;2023-04-06T02:56:16;11.90;;;6.90;;
4355;SDS011;64374;51.482;7.408;2023-04-06T02:58:50;13.33;;;6.63;;
4355;SDS011;64374;51.482;7.408;2023-04-06T03:01:22;8.93;;;6.00;;
4355;SDS011;64374;51.482;7.408;2023-04-06T03:03:56;11.60;;;6.77;;
4355;SDS011;64374;51.482;7.408;2023-04-06T03:06:26;8.20;;;6.60;;
4355;SDS011;64374;51.482;7.408;2023-04-06T03:09:03;9.43;;;6.27;;
4355;SDS011;64374;51.482;7.408;2023-04-06T03:11:34;10.30;;;6.50;;
4355;SDS011;64374;51.482;7.408;2023-04-06T03:14:04;12.50;;;6.20;;
4355;SDS011;64374;51.482;7.408;2023-04-06T03:16:33;7.63;;;5.97;;
4355;SDS011;64374;51.482;7.408;2023-04-06T03:19:02;10.77;;;6.77;;
4355;SDS011;64374;51.482;7.408;2023-04-06T03:21:33;7.80;;;6.50;;
4355;SDS011;64374;51.482;7.408;2023-04-06T03:24:02;8.67;;;6.23;;
4355;SDS011;64374;51.482;7.408;2023-04-06T03:26:31;10.23;;;7.00;;
4355;SDS011;64374;51.482;7.408;2023-04-06T03:29:05;7.33;;;6.30;;
4355;SDS011;64374;51.482;7.408;2023-04-06T03:31:35;7.07;;;6.13;;
4355;SDS011;64374;51.482;7.408;2023-04-06T03:34:24;9.47;;;6.33;;
4355;SDS011;64374;51.482;7.408;2023-04-06T03:36:52;9.90;;;6.30;;
4355;SDS011;64374;51.482;7.408;2023-04-06T03:39:36;10.30;;;6.90;;
4355;SDS011;64374;51.482;7.408;2023-04-06T03:42:05;11.97;;;5.70;;
4355;SDS011;64374;51.482;7.408;2023-04-06T03:44:37;9.37;;;6.00;;
4355;SDS011;64374;51.482;7.408;2023-04-06T03:47:06;10.87;;;6.67;;
4355;SDS011;64374;51.482;7.408;2023-04-06T03:49:34;12.87;;;6.17;;
4355;SDS011;64374;51.482;7.408;2023-04-06T03:52:07;9.80;;;6.90;;
4355;SDS011;64374;51.482;7.408;2023-04-06T03:54:36;8.80;;;6.10;;
4355;SDS011;64374;51.482;7.408;2023-04-06T03:57:06;10.90;;;7.20;;
4355;SDS011;64374;51.482;7.408;2023-04-06T03:59:34;10.50;;;6.43;;
4355;SDS011;64374;51.482;7.408;2023-04-06T04:02:07;9.53;;;6.30;;
4355;SDS011;64374;51.482;7.408;2023-04-06T04:04:36;10.67;;;6.37;;
4355;SDS011;64374;51.482;7.408;2023-04-06T04:07:04;8.97;;;6.60;;
4355;SDS011;64374;51.482;7.408;2023-04-06T04:09:33;9.30;;;6.03;;
4355;SDS011;64374;51.482;7.408;2023-04-06T04:12:03;11.47;;;6.73;;
4355;SDS011;64374;51.482;7.408;2023-04-06T04:14:32;9.17;;;5.93;;
4355;SDS011;64374;51.482;7.408;2023-04-06T04:17:00;9.80;;;7.10;;
4355;SDS011;64374;51.482;7.408;2023-04-06T04:19:30;11.90;;;7.07;;
4355;SDS011;64374;51.482;7.408;2023-04-06T04:21:59;9.33;;;5.97;;
4355;SDS011;64374;51.482;7.408;2023-04-06T04:24:33;11.50;;;8.37;;
4355;SDS011;64374;51.482;7.408;2023-04-06T04:27:03;11.90;;;6.93;;
4355;SDS011;64374;51.482;7.408;2023-04-06T04:29:34;9.87;;;6.50;;
4355;SDS011;64374;51.482;7.408;2023-04-06T04:32:07;13.33;;;6.37;;
4355;SDS011;64374;51.482;7.408;2023-04-06T04:34:38;9.03;;;6.03;;
4355;SDS011;64374;51.482;7.408;2023-04-06T04:37:14;8.60;;;5.60;;
4355;SDS011;64374;51.482;7.408;2023-04-06T04:39:54;9.40;;;6.80;;
4355;SDS011;64374;51.482;7.408;2023-04-06T04:42:23;18.27;;;7.20;;
4355;SDS011;64374;51.482;7.408;2023-04-06T04:45:12;9.60;;;6.13;;
4355;SDS011;64374;51.482;7.408;2023-04-06T04:47:41;10.70;;;6.10;;
4355;SDS011;64374;51.482;7.408;2023-04-06T04:50:31;9.07;;;5.80;;
4355;SDS011;64374;51.482;7.408;2023-04-06T04:53:00;8.87;;;6.00;;
4355;SDS011;64374;51.482;7.408;2023-04-06T04:55:32;17.60;;;7.20;;
4355;SDS011;64374;51.482;7.408;2023-04-06T04:58:01;9.10;;;6.90;;
4355;SDS011;64374;51.482;7.408;2023-04-06T05:00:53;7.13;;;5.50;;
4355;SDS011;64374;51.482;7.408;2023-04-06T05:03:23;15.43;;;7.03;;
4355;SDS011;64374;51.482;7.408;2023-04-06T05:06:02;9.13;;;6.20;;
4355;SDS011;64374;51.482;7.408;2023-04-06T05:08:33;12.80;;;6.20;;
4355;SDS011;64374;51.482;7.408;2023-04-06T05:11:02;11.10;;;6.40;;
4355;SDS011;64374;51.482;7.408;2023-04-06T05:13:34;9.10;;;5.10;;
4355;SDS011;64374;51.482;7.408;2023-04-06T05:16:11;7.53;;;5.53;;
4355;SDS011;64374;51.482;7.408;2023-04-06T05:18:41;7.50;;;5.97;;
4355;SDS011;64374;51.482;7.408;2023-04-06T05:21:11;10.47;;;6.47;;
4355;SDS011;64374;51.482;7.408;2023-04-06T05:23:55;12.27;;;7.13;;
4355;SDS011;64374;51.482;7.408;2023-04-06T05:26:30;6.47;;;5.50;;
4355;SDS011;64374;51.482;7.408;2023-04-06T05:29:05;10.30;;;5.90;;
4355;SDS011;64374;51.482;7.408;2023-04-06T05:31:37;10.47;;;5.90;;
4355;SDS011;64374;51.482;7.408;2023-04-06T05:34:08;15.73;;;6.37;;
4355;SDS011;64374;51.482;7.408;2023-04-06T05:36:38;8.80;;;6.57;;
4355;SDS011;64374;51.482;7.408;2023-04-06T05:39:17;12.33;;;6.33;;
4355;SDS011;64374;51.482;7.408;2023-04-06T05:41:49;10.70;;;5.60;;
4355;SDS011;64374;51.482;7.408;2023-04-06T05:44:29;7.07;;;5.00;;
4355;SDS011;64374;51.482;7.408;2023-04-06T05:47:05;7.80;;;5.53;;
4355;SDS011;64374;51.482;7.408;2023-04-06T05:49:35;7.00;;;5.40;;
4355;SDS011;64374;51.482;7.408;2023-04-06T05:52:09;9.93;;;5.90;;
4355;SDS011;64374;51.482;7.408;2023-04-06T05:54:42;8.30;;;5.47;;
4355;SDS011;64374;51.482;7.408;2023-04-06T05:57:10;10.57;;;5.73;;
4355;SDS011;64374;51.482;7.408;2023-04-06T05:59:41;8.67;;;5.50;;
4355;SDS011;64374;51.482;7.408;2023-04-06T06:02:12;9.57;;;6.10;;
4355;SDS011;64374;51.482;7.408;2023-04-06T06:04:44;12.43;;;5.87;;
4355;SDS011;64374;51.482;7.408;2023-04-06T06:07:16;13.17;;;6.07;;
4355;SDS011;64374;51.482;7.408;2023-04-06T06:09:52;5.77;;;4.77;;
4355;SDS011;64374;51.482;7.408;2023-04-06T06:12:29;10.50;;;5.37;;
4355;SDS011;64374;51.482;7.408;2023-04-06T06:15:00;5.93;;;5.33;;
4355;SDS011;64374;51.482;7.408;2023-04-06T06:17:32;8.63;;;6.20;;
4355;SDS011;64374;51.482;7.408;2023-04-06T06:20:04;12.87;;;5.80;;
4355;SDS011;64374;51.482;7.408;2023-04-06T06:22:36;7.20;;;5.40;;
4355;SDS011;64374;51.482;7.408;2023-04-06T06:25:06;10.70;;;5.67;;
4355;SDS011;64374;51.482;7.408;2023-04-06T06:27:35;9.30;;;5.67;;
4355;SDS011;64374;51.482;7.408;2023-04-06T06:30:05;9.07;;;5.90;;
4355;SDS011;64374;51.482;7.408;2023-04-06T06:32:38;9.43;;;5.87;;
4355;SDS011;64374;51.482;7.408;2023-04-06T06:35:08;10.23;;;5.83;;
4355;SDS011;64374;51.482;7.408;2023-04-06T06:37:38;9.20;;;5.90;;
4355;SDS011;64374;51.482;7.408;2023-04-06T06:40:11;9.83;;;5.90;;
4355;SDS011;64374;51.482;7.408;2023-04-06T06:42:44;9.77;;;5.50;;
4355;SDS011;64374;51.482;7.408;2023-04-06T06:45:35;7.83;;;5.47;;
4355;SDS011;64374;51.482;7.408;2023-04-06T06:48:06;9.87;;;5.33;;
4355;SDS011;64374;51.482;7.408;2023-04-06T06:50:34;10.10;;;5.67;;
4355;SDS011;64374;51.482;7.408;2023-04-06T06:53:06;8.20;;;5.47;;
4355;SDS011;64374;51.482;7.408;2023-04-06T06:55:34;8.90;;;6.27;;
4355;SDS011;64374;51.482;7.408;2023-04-06T06:58:03;8.57;;;6.10;;
4355;SDS011;64374;51.482;7.408;2023-04-06T07:00:32;6.40;;;5.40;;
4355;SDS011;64374;51.482;7.408;2023-04-06T07:03:01;7.47;;;5.60;;
4355;SDS011;64374;51.482;7.408;2023-04-06T07:05:30;7.70;;;5.53;;
4355;SDS011;64374;51.482;7.408;2023-04-06T07:07:58;8.17;;;5.43;;
4355;SDS011;64374;51.482;7.408;2023-04-06T07:10:28;9.90;;;5.97;;
4355;SDS011;64374;51.482;7.408;2023-04-06T07:12:57;7.80;;;5.60;;
4355;SDS011;64374;51.482;7.408;2023-04-06T07:15:26;8.20;;;5.90;;
4355;SDS011;64374;51.482;7.408;2023-04-06T07:17:55;10.47;;;5.70;;
4355;SDS011;64374;51.482;7.408;2023-04-06T07:20:24;10.67;;;5.80;;
4355;SDS011;64374;51.482;7.408;2023-04-06T07:22:55;8.30;;;6.30;;
4355;SDS011;64374;51.482;7.408;2023-04-06T07:25:23;8.80;;;6.00;;
4355;SDS011;64374;51.482;7.408;2023-04-06T07:27:54;10.53;;;6.13;;
4355;SDS011;64374;51.482;7.408;2023-04-06T07:30:24;7.97;;;6.13;;
4355;SDS011;64374;51.482;7.408;2023-04-06T07:32:53;11.30;;;6.03;;
4355;SDS011;64374;51.482;7.408;2023-04-06T07:35:24;7.70;;;6.00;;
4355;SDS011;64374;51.482;7.408;2023-04-06T07:37:54;6.23;;;5.47;;
4355;SDS011;64374;51.482;7.408;2023-04-06T07:40:23;6.63;;;5.60;;
4355;SDS011;64374;51.482;7.408;2023-04-06T07:42:55;9.60;;;6.17;;
4355;SDS011;64374;51.482;7.408;2023-04-06T07:45:24;12.60;;;6.13;;
4355;SDS011;64374;51.482;7.408;2023-04-06T07:47:54;10.03;;;6.33;;
4355;SDS011;64374;51.482;7.408;2023-04-06T07:50:25;17.63;;;7.03;;
4355;SDS011;64374;51.482;7.408;2023-04-06T07:52:55;8.97;;;6.10;;
4355;SDS011;64374;51.482;7.408;2023-04-06T07:55:24;11.30;;;7.10;;
4355;SDS011;64374;51.482;7.408;2023-04-06T07:57:53;8.90;;;5.40;;
4355;SDS011;64374;51.482;7.408;2023-04-06T08:00:23;9.90;;;6.30;;
4355;SDS011;64374;51.482;7.408;2023-04-06T08:02:52;9.07;;;5.70;;
4355;SDS011;64374;51.482;7.408;2023-04-06T08:05:21;8.43;;;5.93;;
4355;SDS011;64374;51.482;7.408;2023-04-06T08:07:49;10.23;;;6.10;;
4355;SDS011;64374;51.482;7.408;2023-04-06T08:10:17;10.87;;;6.13;;
4355;SDS011;64374;51.482;7.408;2023-04-06T08:12:48;10.00;;;6.80;;
4355;SDS011;64374;51.482;7.408;2023-04-06T08:15:17;10.03;;;6.30;;
4355;SDS011;64374;51.482;7.408;2023-04-06T08:17:47;11.43;;;7.23;;
4355;SDS011;64374;51.482;7.408;2023-04-06T08:20:16;9.33;;;5.50;;
4355;SDS011;64374;51.482;7.408;2023-04-06T08:22:44;9.80;;;6.67;;
4355;SDS011;64374;51.482;7.408;2023-04-06T08:25:13;9.37;;;6.53;;
4355;SDS011;64374;51.482;7.408;2023-04-06T08:27:42;8.97;;;6.43;;
4355;SDS011;64374;51.482;7.408;2023-04-06T08:30:11;11.80;;;6.33;;
4355;SDS011;64374;51.482;7.408;2023-04-06T08:32:41;10.13;;;6.47;;
4355;SDS011;64374;51.482;7.408;2023-04-06T08:35:11;9.97;;;6.80;;
4355;SDS011;64374;51.482;7.408;2023-04-06T08:37:41;11.83;;;6.77;;
4355;SDS011;64374;51.482;7.408;2023-04-06T08:40:09;16.13;;;7.30;;
4355;SDS011;64374;51.482;7.408;2023-04-06T08:42:39;8.97;;;6.50;;
4355;SDS011;64374;51.482;7.408;2023-04-06T08:45:11;8.90;;;5.70;;
4355;SDS011;64374;51.482;7.408;2023-04-06T08:47:42;13.27;;;7.97;;
4355;SDS011;64374;51.482;7.408;2023-04-06T08:50:12;11.17;;;7.40;;
4355;SDS011;64374;51.482;7.408;2023-04-06T08:52:42;10.37;;;7.33;;
4355;SDS011;64374;51.482;7.408;2023-04-06T08:55:11;10.80;;;7.70;;
4355;SDS011;64374;51.482;7.408;2023-04-06T08:57:40;14.83;;;7.07;;
4355;SDS011;64374;51.482;7.408;2023-04-06T09:00:10;12.90;;;6.37;;
4355;SDS011;64374;51.482;7.408;2023-04-06T09:02:41;12.73;;;7.37;;
4355;SDS011;64374;51.482;7.408;2023-04-06T09:05:13;21.00;;;8.37;;
4355;SDS011;64374;51.482;7.408;2023-04-06T09:07:43;12.70;;;9.50;;
4355;SDS011;64374;51.482;7.408;2023-04-06T09:10:13;12.07;;;7.37;;
4355;SDS011;64374;51.482;7.408;2023-04-06T09:12:42;9.90;;;7.03;;
4355;SDS011;64374;51.482;7.408;2023-04-06T09:15:17;12.50;;;8.00;;
4355;SDS011;64374;51.482;7.408;2023-04-06T09:17:51;14.17;;;8.33;;
4355;SDS011;64374;51.482;7.408;2023-04-06T09:20:23;15.90;;;8.37;;
4355;SDS011;64374;51.482;7.408;2023-04-06T09:22:54;13.40;;;9.07;;
4355;SDS011;64374;51.482;7.408;2023-04-06T09:25:23;13.57;;;8.80;;
4355;SDS011;64374;51.482;7.408;2023-04-06T09:28:00;15.30;;;10.40;;
4355;SDS011;64374;51.482;7.408;2023-04-06T09:30:30;16.40;;;9.83;;
4355;SDS011;64374;51.482;7.408;2023-04-06T09:32:58;13.00;;;8.57;;
4355;SDS011;64374;51.482;7.408;2023-04-06T09:35:29;20.20;;;9.10;;
4355;SDS011;64374;51.482;7.408;2023-04-06T09:38:09;11.23;;;8.47;;
4355;SDS011;64374;51.482;7.408;2023-04-06T09:40:47;18.13;;;9.80;;
4355;SDS011;64374;51.482;7.408;2023-04-06T09:43:28;14.60;;;9.27;;
4355;SDS011;64374;51.482;7.408;2023-04-06T09:45:58;12.17;;;8.53;;
4355;SDS011;64374;51.482;7.408;2023-04-06T09:48:30;22.20;;;8.93;;
4355;SDS011;64374;51.482;7.408;2023-04-06T09:51:03;12.87;;;8.03;;
4355;SDS011;64374;51.482;7.408;2023-04-06T09:53:35;14.20;;;10.00;;
4355;SDS011;64374;51.482;7.408;2023-04-06T09:56:06;19.23;;;10.80;;
4355;SDS011;64374;51.482;7.408;2023-04-06T09:58:39;19.77;;;12.00;;
4355;SDS011;64374;51.482;7.408;2023-04-06T10:01:12;17.30;;;10.60;;
4355;SDS011;64374;51.482;7.408;2023-04-06T10:03:48;15.30;;;10.10;;
4355;SDS011;64374;51.482;7.408;2023-04-06T10:06:27;19.93;;;11.73;;
4355;SDS011;64374;51.482;7.408;2023-04-06T10:09:02;18.13;;;11.20;;
4355;SDS011;64374;51.482;7.408;2023-04-06T10:11:34;21.00;;;12.67;;
4355;SDS011;64374;51.482;7.408;2023-04-06T10:14:03;19.00;;;12.30;;
4355;SDS011;64374;51.482;7.408;2023-04-06T10:16:33;18.60;;;11.80;;
4355;SDS011;64374;51.482;7.408;2023-04-06T10:19:04;24.53;;;14.40;;
4355;SDS011;64374;51.482;7.408;2023-04-06T10:21:41;22.17;;;12.47;;
4355;SDS011;64374;51.482;7.408;2023-04-06T10:24:12;23.17;;;12.97;;
4355;SDS011;64374;51.482;7.408;2023-04-06T10:26:41;17.97;;;11.80;;
4355;SDS011;64374;51.482;7.408;2023-04-06T10:29:09;18.47;;;11.63;;
4355;SDS011;64374;51.482;7.408;2023-04-06T10:31:39;18.93;;;11.27;;
4355;SDS011;64374;51.482;7.408;2023-04-06T10:34:11;16.40;;;9.80;;
4355;SDS011;64374;51.482;7.408;2023-04-06T10:36:42;19.93;;;11.60;;
4355;SDS011;64374;51.482;7.408;2023-04-06T10:39:11;18.90;;;13.00;;
4355;SDS011;64374;51.482;7.408;2023-04-06T10:41:41;19.10;;;11.83;;
4355;SDS011;64374;51.482;7.408;2023-04-06T10:44:17;21.43;;;13.57;;
4355;SDS011;64374;51.482;7.408;2023-04-06T10:46:53;19.40;;;12.57;;
4355;SDS011;64374;51.482;7.408;2023-04-06T10:49:44;19.00;;;14.03;;
4355;SDS011;64374;51.482;7.408;2023-04-06T10:52:14;19.03;;;13.57;;
4355;SDS011;64374;51.482;7.408;2023-04-06T10:54:43;19.57;;;11.90;;
4355;SDS011;64374;51.482;7.408;2023-04-06T10:57:16;19.87;;;12.40;;
4355;SDS011;64374;51.482;7.408;2023-04-06T10:59:56;18.70;;;11.80;;
4355;SDS011;64374;51.482;7.408;2023-04-06T11:02:24;18.30;;;11.23;;
4355;SDS011;64374;51.482;7.408;2023-04-06T11:04:55;14.43;;;10.90;;
4355;SDS011;64374;51.482;7.408;2023-04-06T11:07:27;19.57;;;11.90;;
4355;SDS011;64374;51.482;7.408;2023-04-06T11:09:57;16.53;;;11.43;;
4355;SDS011;64374;51.482;7.408;2023-04-06T11:12:41;21.07;;;12.47;;
4355;SDS011;64374;51.482;7.408;2023-04-06T11:15:09;20.03;;;13.03;;
4355;SDS011;64374;51.482;7.408;2023-04-06T11:17:38;16.83;;;11.63;;
4355;SDS011;64374;51.482;7.408;2023-04-06T11:20:09;17.87;;;12.30;;
4355;SDS011;64374;51.482;7.408;2023-04-06T11:22:51;20.27;;;12.57;;
4355;SDS011;64374;51.482;7.408;2023-04-06T11:25:19;22.37;;;13.20;;
4355;SDS011;64374;51.482;7.408;2023-04-06T11:27:49;19.13;;;13.47;;
4355;SDS011;64374;51.482;7.408;2023-04-06T11:30:19;18.53;;;12.60;;
4355;SDS011;64374;51.482;7.408;2023-04-06T11:32:47;22.33;;;12.50;;
4355;SDS011;64374;51.482;7.408;2023-04-06T11:35:22;21.17;;;13.17;;
4355;SDS011;64374;51.482;7.408;2023-04-06T11:37:53;20.63;;;13.70;;
4355;SDS011;64374;51.482;7.408;2023-04-06T11:40:23;22.43;;;13.03;;
4355;SDS011;64374;51.482;7.408;2023-04-06T11:42:52;26.00;;;12.53;;
4355;SDS011;64374;51.482;7.408;2023-04-06T11:45:21;19.10;;;13.13;;
4355;SDS011;64374;51.482;7.408;2023-04-06T11:47:55;19.80;;;14.00;;
4355;SDS011;64374;51.482;7.408;2023-04-06T11:50:31;19.27;;;12.87;;
4355;SDS011;64374;51.482;7.408;2023-04-06T11:53:02;19.60;;;13.00;;
4355;SDS011;64374;51.482;7.408;2023-04-06T11:55:36;23.73;;;16.13;;
4355;SDS011;64374;51.482;7.408;2023-04-06T11:58:05;21.80;;;13.70;;
4355;SDS011;64374;51.482;7.408;2023-04-06T12:00:36;21.80;;;13.90;;
4355;SDS011;64374;51.482;7.408;2023-04-06T12:03:04;21.53;;;13.83;;
4355;SDS011;64374;51.482;7.408;2023-04-06T12:05:33;18.97;;;13.90;;
4355;SDS011;64374;51.482;7.408;2023-04-06T12:08:03;22.20;;;15.27;;
4355;SDS011;64374;51.482;7.408;2023-04-06T12:10:32;24.83;;;15.23;;
4355;SDS011;64374;51.482;7.408;2023-04-06T12:13:02;22.60;;;13.90;;
4355;SDS011;64374;51.482;7.408;2023-04-06T12:15:31;24.33;;;16.80;;
4355;SDS011;64374;51.482;7.408;2023-04-06T12:18:00;20.40;;;15.37;;
4355;SDS011;64374;51.482;7.408;2023-04-06T12:20:29;19.13;;;14.37;;
4355;SDS011;64374;51.482;7.408;2023-04-06T12:23:00;20.20;;;14.63;;
4355;SDS011;64374;51.482;7.408;2023-04-06T12:25:29;21.93;;;14.90;;
4355;SDS011;64374;51.482;7.408;2023-04-06T12:28:01;19.80;;;13.37;;
4355;SDS011;64374;51.482;7.408;2023-04-06T12:30:30;25.40;;;14.70;;
4355;SDS011;64374;51.482;7.408;2023-04-06T12:32:59;22.60;;;15.13;;
4355;SDS011;64374;51.482;7.408;2023-04-06T12:35:28;25.40;;;13.10;;
4355;SDS011;64374;51.482;7.408;2023-04-06T12:38:03;20.93;;;11.90;;
4355;SDS011;64374;51.482;7.408;2023-04-06T12:40:37;20.53;;;12.70;;
4355;SDS011;64374;51.482;7.408;2023-04-06T12:43:06;18.93;;;12.90;;
4355;SDS011;64374;51.482;7.408;2023-04-06T12:45:37;18.77;;;12.63;;
4355;SDS011;64374;51.482;7.408;2023-04-06T12:48:05;20.00;;;12.50;;
4355;SDS011;64374;51.482;7.408;2023-04-06T12:50:34;14.60;;;11.60;;
4355;SDS011;64374;51.482;7.408;2023-04-06T12:53:04;21.33;;;12.60;;
4355;SDS011;64374;51.482;7.408;2023-04-06T12:55:32;16.83;;;12.10;;
4355;SDS011;64374;51.482;7.408;2023-04-06T12:58:05;19.80;;;12.30;;
4355;SDS011;64374;51.482;7.408;2023-04-06T13:00:34;16.07;;;12.70;;
4355;SDS011;64374;51.482;7.408;2023-04-06T13:03:03;16.67;;;11.87;;
4355;SDS011;64374;51.482;7.408;2023-04-06T13:05:33;18.70;;;12.23;;
4355;SDS011;64374;51.482;7.408;2023-04-06T13:08:02;17.07;;;12.13;;
4355;SDS011;64374;51.482;7.408;2023-04-06T13:10:30;15.70;;;10.60;;
4355;SDS011;64374;51.482;7.408;2023-04-06T13:12:58;17.47;;;11.77;;
4355;SDS011;64374;51.482;7.408;2023-04-06T13:15:29;19.73;;;11.07;;
4355;SDS011;64374;51.482;7.408;2023-04-06T13:18:01;18.20;;;12.37;;
4355;SDS011;64374;51.482;7.408;2023-04-06T13:20:29;19.93;;;11.67;;
4355;SDS011;64374;51.482;7.408;2023-04-06T13:22:58;22.03;;;13.03;;
4355;SDS011;64374;51.482;7.408;2023-04-06T13:25:26;20.60;;;12.23;;
4355;SDS011;64374;51.482;7.408;2023-04-06T13:27:56;16.10;;;10.90;;
4355;SDS011;64374;51.482;7.408;2023-04-06T13:30:25;14.90;;;10.77;;
4355;SDS011;64374;51.482;7.408;2023-04-06T13:32:55;23.53;;;13.10;;
4355;SDS011;64374;51.482;7.408;2023-04-06T13:35:23;17.60;;;10.90;;
4355;SDS011;64374;51.482;7.408;2023-04-06T13:37:51;15.13;;;11.47;;
4355;SDS011;64374;51.482;7.408;2023-04-06T13:40:21;17.13;;;10.93;;
4355;SDS011;64374;51.482;7.408;2023-04-06T13:42:49;15.67;;;10.13;;
4355;SDS011;64374;51.482;7.408;2023-04-06T13:45:18;15.30;;;11.00;;
4355;SDS011;64374;51.482;7.408;2023-04-06T13:47:48;22.97;;;12.77;;
4355;SDS011;64374;51.482;7.408;2023-04-06T13:50:18;20.67;;;13.40;;
4355;SDS011;64374;51.482;7.408;2023-04-06T13:52:47;16.10;;;10.73;;
4355;SDS011;64374;51.482;7.408;2023-04-06T13:55:18;11.70;;;9.37;;
4355;SDS011;64374;51.482;7.408;2023-04-06T13:57:48;15.53;;;9.27;;
4355;SDS011;64374;51.482;7.408;2023-04-06T14:00:19;14.20;;;9.47;;
4355;SDS011;64374;51.482;7.408;2023-04-06T14:02:47;12.10;;;9.40;;
4355;SDS011;64374;51.482;7.408;2023-04-06T14:05:16;16.80;;;8.30;;
4355;SDS011;64374;51.482;7.408;2023-04-06T14:07:49;13.23;;;8.97;;
4355;SDS011;64374;51.482;7.408;2023-04-06T14:10:18;13.60;;;7.53;;
4355;SDS011;64374;51.482;7.408;2023-04-06T14:12:50;10.10;;;6.97;;
4355;SDS011;64374;51.482;7.408;2023-04-06T14:15:19;9.73;;;7.30;;
4355;SDS011;64374;51.482;7.408;2023-04-06T14:17:48;8.60;;;6.57;;
4355;SDS011;64374;51.482;7.408;2023-04-06T14:20:18;7.20;;;5.23;;
4355;SDS011;64374;51.482;7.408;2023-04-06T14:22:49;9.70;;;6.87;;
4355;SDS011;64374;51.482;7.408;2023-04-06T14:25:19;13.13;;;6.63;;
4355;SDS011;64374;51.482;7.408;2023-04-06T14:27:48;11.70;;;6.80;;
4355;SDS011;64374;51.482;7.408;2023-04-06T14:30:16;10.30;;;7.67;;
4355;SDS011;64374;51.482;7.408;2023-04-06T14:32:45;10.30;;;7.20;;
4355;SDS011;64374;51.482;7.408;2023-04-06T14:35:13;12.67;;;7.70;;
4355;SDS011;64374;51.482;7.408;2023-04-06T14:37:42;15.93;;;8.27;;
4355;SDS011;64374;51.482;7.408;2023-04-06T14:40:12;10.60;;;8.23;;
4355;SDS011;64374;51.482;7.408;2023-04-06T14:42:41;11.37;;;7.30;;
4355;SDS011;64374;51.482;7.408;2023-04-06T14:45:09;14.00;;;8.87;;
4355;SDS011;64374;51.482;7.408;2023-04-06T14:47:38;12.07;;;8.53;;
4355;SDS011;64374;51.482;7.408;2023-04-06T14:50:07;11.07;;;8.50;;
4355;SDS011;64374;51.482;7.408;2023-04-06T14:53:07;15.47;;;8.77;;
4355;SDS011;64374;51.482;7.408;2023-04-06T14:56:34;11.80;;;8.50;;
4355;SDS011;64374;51.482;7.408;2023-04-06T14:59:04;18.50;;;9.80;;
4355;SDS011;64374;51.482;7.408;2023-04-06T15:01:33;14.27;;;10.17;;
4355;SDS011;64374;51.482;7.408;2023-04-06T15:04:03;16.30;;;10.70;;
4355;SDS011;64374;51.482;7.408;2023-04-06T15:06:34;15.83;;;10.40;;
4355;SDS011;64374;51.482;7.408;2023-04-06T15:09:09;14.83;;;9.40;;
4355;SDS011;64374;51.482;7.408;2023-04-06T15:12:41;14.50;;;9.97;;
4355;SDS011;64374;51.482;7.408;2023-04-06T15:15:10;18.20;;;10.70;;